Aérodrome :
LOGIN :

S'inscrire | Disclaimer

   EN    FR    IT 

 










Légende :    VFR   VFR Marginal   IFR   IFR Intensif   IFR Très Intensif
Visi : 
Plafond : 
>= 8 km
>= 3000ft
5 à 8 km
1000 à 3000 ft
1500m à 5 km
500 à 1000 ft
800 à 1500m
200 à 500 ft
< 800m
< 200 ft
Symboles :   Orages  Brouillard  Fortes neiges  Fortes précipitations  Vent > 20 kt
SIGMETs :   Divers  Orages  Givrage  Turbulence  Onde Orograph.  Cendres Volcan.







- Altitude de l'aérodrome : 277 ft
- Code IATA : JER
- Voir les cartes d'approche


EGJJ - Jersey

DERNIER METAR :
  • 270550Z 16008KT 9999 FEW040 09/07 Q1007

METARs EXPIRÉS :
  • 270520Z 16006KT 9999 FEW040 09/07 Q1008
  • 270450Z 17005KT 9999 FEW030 09/07 Q1008
  • 270420Z AUTO 19006KT CAVOK 09/07 Q1008
  • 270350Z AUTO 19005KT CAVOK 09/07 Q1009
  • 270320Z AUTO 18006KT CAVOK 09/07 Q1009

TAF TAF EGJJ
Valide du 27 à 06h jusqu'au 27 à 15h UTC


270458Z 2706/2715 14012KT 9999 FEW015 BKN035
BECMG 2708/2710 14020G30KT
TEMPO 2708/2715 6000 RA BKN015
BECMG 2710/2712 18025G35KT
ATIS : +44 1534 498 073
Pas de NOTAMs connus pour ce terrain.
1 SIGMET publié pour la FIR Brest (LFRR) :
 
Turbulence forte
LFRR SIGMET 1 VALID 270400/270800 LFPW
LFRR BREST FIR/UIR SEV TURB FCST WI N4600 W00800 - N4815 W00800 - N4815 W00615 - N4600 W00630 - N4600 W00800 SFC/FL060 MOV E 20KT NC=



MET'MAP, la Météo Aéronautique d'un coup d'oeil ! - Copyright ORBIFLY Décembre 2007 - Disclaimer

ORBIFLY MET'MAP TEAM :

Programmation & Développement : Alexandra Zaïnal
Conception & Développement : Baudouin d'Aumeries
Co-Programmation & Développement : Marc-Olivier Méhu
Soutien technique & logistique : Manuel Goepfert

Contact : metmap@orbifly.com




SOURCES & CREDITS :

   NOAA